Time,TemperatureF,DewpointF,PressureIn,WindDirection,WindDirectionDegrees,WindSpeedMPH,WindSpeedGustMPH,Humidity,HourlyPrecipIn,Conditions,Clouds,dailyrainin,SoftwareType,DateUTC
2013-08-26 00:14:00,64.0,56.0,30.20,WNW,293,0.0,0.0,76,0.00,,,0.00,,2013-08-26 04:14:00,
2013-08-26 00:53:00,64.0,57.0,30.21,SSW,203,0.0,0.0,78,0.00,,,0.00,,2013-08-26 04:53:00,
2013-08-26 01:23:00,64.0,57.0,30.20,SW,225,0.0,0.0,79,0.00,,,0.00,,2013-08-26 05:23:00,
2013-08-26 01:52:00,64.0,58.0,30.19,SSW,203,0.0,0.0,80,0.00,,,0.00,,2013-08-26 05:52:00,
2013-08-26 02:12:00,64.0,58.0,30.19,SSW,203,0.0,0.0,80,0.00,,,0.00,,2013-08-26 06:12:00,
2013-08-26 02:22:00,64.0,57.0,30.18,SW,225,0.0,0.0,79,0.00,,,0.00,,2013-08-26 06:22:00,
2013-08-26 02:52:00,64.0,57.0,30.18,WSW,248,0.0,0.0,79,0.00,,,0.00,,2013-08-26 06:52:00,
2013-08-26 03:22:00,64.0,57.0,30.17,South,180,0.0,0.0,79,0.00,,,0.00,,2013-08-26 07:22:00,
2013-08-26 03:52:00,64.0,57.0,30.16,WSW,248,0.0,0.0,79,0.00,,,0.00,,2013-08-26 07:52:00,
2013-08-26 04:22:00,64.0,58.0,30.14,SSW,203,0.0,0.0,80,0.00,,,0.00,,2013-08-26 08:22:00,
2013-08-26 04:52:00,64.0,58.0,30.14,SSW,203,0.0,0.0,80,0.00,,,0.00,,2013-08-26 08:52:00,
2013-08-26 05:22:00,64.0,58.0,30.14,West,270,0.0,0.0,80,0.00,,,0.00,,2013-08-26 09:22:00,
2013-08-26 05:54:00,64.0,58.0,30.13,WSW,248,0.0,0.0,80,0.00,,,0.00,,2013-08-26 09:54:00,
2013-08-26 06:23:00,65.0,59.0,30.13,SW,225,0.0,0.0,80,0.00,,,0.00,,2013-08-26 10:23:00,
2013-08-26 06:52:00,65.0,59.0,30.12,South,180,0.0,0.0,80,0.00,,,0.00,,2013-08-26 10:52:00,
2013-08-26 07:22:00,65.0,59.0,30.12,SW,225,0.0,0.0,80,0.00,,,0.00,,2013-08-26 11:22:00,
2013-08-26 07:52:00,66.0,60.0,30.11,SW,225,0.0,0.0,80,0.00,,,0.00,,2013-08-26 11:52:00,
2013-08-26 08:22:00,66.0,59.0,30.11,SW,225,0.0,0.0,79,0.00,,,0.00,,2013-08-26 12:22:00,
2013-08-26 08:52:00,66.0,59.0,30.11,SW,225,0.0,0.0,79,0.00,,,0.00,,2013-08-26 12:52:00,
2013-08-26 09:22:00,66.0,59.0,30.10,West,270,0.0,0.0,79,0.00,,,0.00,,2013-08-26 13:22:00,
2013-08-26 09:52:00,67.0,60.0,30.10,WNW,293,0.0,0.0,78,0.00,,,0.00,,2013-08-26 13:52:00,
2013-08-26 10:22:00,67.0,60.0,30.08,SE,135,0.0,0.0,77,0.00,,,0.00,,2013-08-26 14:22:00,
2013-08-26 10:52:00,67.0,60.0,30.07,SW,225,0.0,0.0,77,0.00,,,0.00,,2013-08-26 14:52:00,
2013-08-26 11:22:00,69.0,61.0,30.07,West,270,0.0,5.0,75,0.00,,,0.00,,2013-08-26 15:22:00,
2013-08-26 11:59:00,74.0,64.0,30.06,WSW,248,0.0,0.0,70,0.00,,,0.00,,2013-08-26 15:59:00,
2013-08-26 12:29:00,76.0,63.0,30.05,WSW,248,4.0,4.0,64,0.00,,,0.00,,2013-08-26 16:29:00,
2013-08-26 12:59:00,72.0,62.0,30.04,WNW,293,0.0,0.0,70,0.00,,,0.00,,2013-08-26 16:59:00,
2013-08-26 13:24:00,71.0,65.0,30.03,West,270,0.0,0.0,80,0.00,,,0.00,,2013-08-26 17:24:00,
2013-08-26 15:52:00,83.0,66.0,29.96,NNW,338,0.0,0.0,56,0.00,,,0.00,,2013-08-26 19:52:00,
2013-08-26 16:22:00,80.0,65.0,29.95,WSW,248,0.0,0.0,61,0.00,,,0.00,,2013-08-26 20:22:00,
2013-08-26 16:52:00,78.0,65.0,29.95,West,270,0.0,0.0,64,0.00,,,0.00,,2013-08-26 20:52:00,
2013-08-26 17:22:00,76.0,64.0,29.96,SW,225,0.0,0.0,67,0.00,,,0.00,,2013-08-26 21:22:00,
2013-08-26 17:55:00,75.0,64.0,29.94,West,270,0.0,0.0,69,0.00,,,0.00,,2013-08-26 21:55:00,
2013-08-26 18:26:00,73.0,63.0,29.94,West,270,0.0,0.0,72,0.00,,,0.00,,2013-08-26 22:26:00,
2013-08-26 18:53:00,71.0,62.0,29.94,NE,45,0.0,0.0,74,0.00,,,0.00,,2013-08-26 22:53:00,
2013-08-26 19:22:00,70.0,62.0,29.93,West,270,0.0,0.0,77,0.00,,,0.00,,2013-08-26 23:22:00,
2013-08-26 19:52:00,69.0,62.0,29.93,WNW,293,0.0,0.0,79,0.00,,,0.00,,2013-08-26 23:52:00,
2013-08-26 20:21:00,69.0,63.0,29.93,WNW,293,0.0,0.0,81,0.00,,,0.00,,2013-08-27 00:21:00,
2013-08-26 20:52:00,69.0,63.0,29.94,WNW,293,0.0,0.0,82,0.00,,,0.00,,2013-08-27 00:52:00,
2013-08-26 21:22:00,68.0,63.0,29.93,WNW,293,0.0,0.0,84,0.00,,,0.00,,2013-08-27 01:22:00,
2013-08-26 21:52:00,68.0,63.0,29.93,WNW,293,0.0,0.0,85,0.00,,,0.00,,2013-08-27 01:52:00,
2013-08-26 22:22:00,68.0,64.0,29.92,SE,135,0.0,0.0,86,0.00,,,0.00,,2013-08-27 02:22:00,
2013-08-26 22:52:00,68.0,64.0,29.92,SW,225,0.0,0.0,86,0.00,,,0.00,,2013-08-27 02:52:00,
2013-08-26 23:22:00,68.0,64.0,29.91,SW,225,0.0,0.0,88,0.00,,,0.00,,2013-08-27 03:22:00,
2013-08-26 23:58:00,68.0,64.0,29.91,NW,315,0.0,0.0,88,0.00,,,0.00,,2013-08-27 03:58:00,